Time;durP1;ratioP1;P1;durP2;ratioP2;P2;SDS_P1;SDS_P2;PMS_P1;PMS_P2;Temp;Humidity;BMP_temperature;BMP_pressure;BME280_temperature;BME280_humidity;BME280_pressure;Samples;Min_cycle;Max_cycle;Signal;HPM_P1;HPM_P2
2023/10/16 00:00:29;;;;;;;13.00;2.33;;;6.40;99.90;;;;;;4991502;28;20034;-44
2023/10/16 00:02:59;;;;;;;4.55;1.55;;;6.40;99.90;;;;;;4991488;28;20376;-43
2023/10/16 00:05:31;;;;;;;3.05;1.33;;;6.40;99.90;;;;;;4973655;28;20033;-43
2023/10/16 00:07:57;;;;;;;4.03;1.45;;;6.40;99.90;;;;;;4991482;28;20056;-44
2023/10/16 00:10:26;;;;;;;6.10;1.80;;;6.40;99.90;;;;;;4990946;28;20503;-43
2023/10/16 00:12:52;;;;;;;7.05;1.40;;;6.40;99.90;;;;;;4991623;28;20068;-43
2023/10/16 00:15:17;;;;;;;7.88;1.52;;;6.40;99.90;;;;;;4991246;28;20042;-42
2023/10/16 00:17:43;;;;;;;6.88;1.70;;;6.40;99.90;;;;;;4991371;28;20073;-46
2023/10/16 00:20:16;;;;;;;5.15;1.55;;;6.40;99.90;;;;;;4991139;28;20022;-44
2023/10/16 00:22:43;;;;;;;6.45;1.60;;;6.40;99.90;;;;;;4991369;28;20408;-42
2023/10/16 00:25:10;;;;;;;6.43;1.70;;;6.40;99.90;;;;;;4990737;28;20018;-44
2023/10/16 00:27:37;;;;;;;9.63;1.58;;;6.40;99.90;;;;;;4973905;28;20488;-43
2023/10/16 00:30:07;;;;;;;10.18;2.20;;;6.40;99.90;;;;;;4990984;28;20030;-43
2023/10/16 00:32:40;;;;;;;8.48;1.50;;;6.40;99.90;;;;;;4990913;28;20364;-42
2023/10/16 00:35:08;;;;;;;9.30;2.00;;;6.40;99.90;;;;;;4973026;28;20062;-43
2023/10/16 00:37:34;;;;;;;6.47;1.67;;;6.40;99.90;;;;;;4990792;28;20056;-42
2023/10/16 00:40:02;;;;;;;7.43;1.60;;;6.30;99.90;;;;;;4990665;28;20065;-44
2023/10/16 00:42:29;;;;;;;6.20;1.85;;;6.40;99.90;;;;;;4987173;28;20019;-44
2023/10/16 00:44:58;;;;;;;7.90;2.55;;;6.40;99.90;;;;;;4984901;28;20015;-43
2023/10/16 00:47:24;;;;;;;9.73;2.15;;;6.40;99.90;;;;;;4982815;28;20023;-43
2023/10/16 00:49:51;;;;;;;14.45;1.80;;;6.40;99.90;;;;;;4990669;28;20392;-43
2023/10/16 00:52:18;;;;;;;6.47;1.63;;;6.30;99.90;;;;;;4990495;28;20030;-42
2023/10/16 00:54:46;;;;;;;9.32;2.05;;;6.30;99.90;;;;;;4990379;28;20027;-42
2023/10/16 00:57:13;;;;;;;8.95;1.65;;;6.30;99.90;;;;;;4990632;28;20037;-43
2023/10/16 00:59:40;;;;;;;5.25;1.48;;;6.20;99.90;;;;;;4990768;28;20382;-44
2023/10/16 01:02:15;;;;;;;6.35;2.03;;;6.20;99.90;;;;;;4990714;28;20542;-43
2023/10/16 01:04:41;;;;;;;7.03;2.00;;;6.20;99.90;;;;;;4990344;28;20056;-42
2023/10/16 01:07:08;;;;;;;4.50;2.13;;;6.20;99.90;;;;;;4990683;28;20089;-43
2023/10/16 01:09:39;;;;;;;8.82;1.80;;;6.20;99.90;;;;;;4972920;28;20085;-43
2023/10/16 01:12:08;;;;;;;9.07;2.20;;;6.20;99.90;;;;;;4990213;28;20046;-43
2023/10/16 01:14:38;;;;;;;7.85;2.03;;;6.20;99.90;;;;;;4972492;28;20034;-43
2023/10/16 01:17:12;;;;;;;7.18;2.50;;;6.20;99.90;;;;;;4990051;28;20054;-43
2023/10/16 01:19:42;;;;;;;5.03;1.63;;;6.20;99.90;;;;;;4989935;28;20061;-43
2023/10/16 01:22:11;;;;;;;8.90;2.25;;;6.10;99.90;;;;;;4989611;28;20018;-43
2023/10/16 01:24:43;;;;;;;7.20;1.88;;;6.10;99.90;;;;;;4989830;28;20033;-43
2023/10/16 01:27:14;;;;;;;4.38;2.00;;;6.10;99.90;;;;;;4990110;28;20018;-42
2023/10/16 01:29:40;;;;;;;12.77;2.47;;;6.10;99.90;;;;;;4989968;28;20041;-44
2023/10/16 01:32:07;;;;;;;7.25;1.92;;;6.10;99.90;;;;;;4989897;28;20399;-42
2023/10/16 01:34:34;;;;;;;8.57;2.28;;;6.10;99.90;;;;;;4989727;28;20479;-43
2023/10/16 01:37:08;;;;;;;5.70;2.25;;;6.00;99.90;;;;;;4989630;28;20093;-43
2023/10/16 01:39:53;;;;;;;4.82;2.17;;;6.00;99.90;;;;;;4989752;28;20109;-42
2023/10/16 01:42:19;;;;;;;5.95;1.88;;;6.00;99.90;;;;;;4989765;28;20019;-45
2023/10/16 01:44:45;;;;;;;8.93;1.85;;;5.90;99.90;;;;;;4973409;28;20068;-43
2023/10/16 01:47:17;;;;;;;6.07;2.20;;;5.90;99.90;;;;;;4976469;28;20022;-43
2023/10/16 01:49:44;;;;;;;6.10;2.05;;;5.90;99.90;;;;;;4994161;28;20407;-43
2023/10/16 01:52:13;;;;;;;4.20;2.65;;;5.90;99.90;;;;;;4993670;28;20038;-43
2023/10/16 01:54:40;;;;;;;11.80;2.33;;;5.90;99.90;;;;;;4993804;28;20058;-42
2023/10/16 01:57:12;;;;;;;7.10;2.53;;;5.80;99.90;;;;;;4993174;28;20088;-44
2023/10/16 01:59:43;;;;;;;6.43;2.40;;;5.80;99.90;;;;;;4993594;28;20442;-43
2023/10/16 02:02:11;;;;;;;9.15;2.63;;;5.80;99.90;;;;;;4993374;28;20030;-43
2023/10/16 02:04:38;;;;;;;8.82;2.60;;;5.90;99.90;;;;;;4993502;28;20058;-42
2023/10/16 02:07:04;;;;;;;8.98;2.55;;;5.90;99.90;;;;;;4993190;28;20153;-42
2023/10/16 02:09:31;;;;;;;4.07;2.17;;;5.90;99.90;;;;;;4993766;28;20049;-42
2023/10/16 02:11:59;;;;;;;10.73;2.88;;;5.90;99.90;;;;;;4993507;28;20423;-43
2023/10/16 02:14:26;;;;;;;9.60;3.90;;;6.00;99.90;;;;;;4993332;28;20037;-45
2023/10/16 02:16:52;;;;;;;8.13;2.38;;;6.00;99.90;;;;;;4993355;28;20018;-42
2023/10/16 02:19:17;;;;;;;10.70;3.10;;;6.00;99.90;;;;;;4975916;28;20113;-42
2023/10/16 02:21:44;;;;;;;10.75;2.80;;;6.00;99.90;;;;;;4993355;28;20101;-43
2023/10/16 02:24:11;;;;;;;6.45;2.20;;;6.00;99.90;;;;;;4992918;28;20026;-42
2023/10/16 02:26:55;;;;;;;11.82;2.38;;;6.10;99.90;;;;;;4992999;28;20022;-43
2023/10/16 02:29:24;;;;;;;8.15;2.53;;;6.10;99.90;;;;;;4993328;28;20031;-44
2023/10/16 02:31:53;;;;;;;5.57;2.20;;;6.00;99.90;;;;;;4993520;28;20438;-43
2023/10/16 02:34:22;;;;;;;11.55;2.42;;;6.00;99.90;;;;;;4992746;28;20036;-43
2023/10/16 02:36:54;;;;;;;6.90;2.70;;;6.00;99.90;;;;;;4993170;28;20073;-45
2023/10/16 02:39:35;;;;;;;13.38;2.70;;;6.00;99.90;;;;;;4993087;28;20328;-42
2023/10/16 02:42:08;;;;;;;12.38;3.63;;;6.00;99.90;;;;;;4975398;28;20427;-45
2023/10/16 02:44:42;;;;;;;13.40;2.67;;;6.00;99.90;;;;;;4992545;28;20146;-45
2023/10/16 02:47:13;;;;;;;5.65;2.20;;;6.00;99.90;;;;;;4992642;28;20022;-46
2023/10/16 02:49:41;;;;;;;;;;;5.90;99.90;;;;;;4993319;28;20037;-43
2023/10/16 02:52:06;;;;;;;5.65;2.13;;;5.90;99.90;;;;;;4992666;28;19982;-43
2023/10/16 02:54:32;;;;;;;9.38;4.28;;;5.90;99.90;;;;;;4992695;28;20050;-43
2023/10/16 02:56:59;;;;;;;10.02;2.67;;;5.90;99.90;;;;;;4991669;28;20093;-43
2023/10/16 02:59:26;;;;;;;10.45;2.90;;;5.90;99.90;;;;;;4992242;28;20034;-42
2023/10/16 03:01:56;;;;;;;7.30;2.33;;;5.90;99.90;;;;;;4992508;28;20735;-45
2023/10/16 03:04:23;;;;;;;6.97;2.70;;;6.00;99.90;;;;;;4974900;28;20081;-44
2023/10/16 03:06:53;;;;;;;10.07;2.45;;;5.90;99.90;;;;;;4992333;28;20046;-43
2023/10/16 03:09:30;;;;;;;9.98;2.88;;;5.90;99.90;;;;;;4992265;28;20475;-43
2023/10/16 03:12:08;;;;;;;7.82;2.83;;;5.90;99.90;;;;;;4992298;28;20076;-43
2023/10/16 03:14:48;;;;;;;7.20;2.67;;;6.00;99.90;;;;;;4987409;28;20018;-43
2023/10/16 03:17:22;;;;;;;10.55;2.45;;;5.90;99.90;;;;;;4985197;28;20033;-43
2023/10/16 03:19:48;;;;;;;8.18;2.33;;;6.00;99.90;;;;;;4973923;28;20048;-42
2023/10/16 03:22:15;;;;;;;8.60;2.33;;;6.00;99.90;;;;;;4984980;28;20022;-44
2023/10/16 03:24:42;;;;;;;14.20;2.45;;;6.00;99.90;;;;;;4986389;28;20034;-42
2023/10/16 03:27:08;;;;;;;8.63;2.53;;;6.00;99.90;;;;;;4984076;28;20410;-44
2023/10/16 03:29:35;;;;;;;7.35;2.28;;;6.00;99.90;;;;;;4989203;28;20026;-42
2023/10/16 03:32:02;;;;;;;8.20;1.95;;;6.00;99.90;;;;;;4988490;28;20030;-44
2023/10/16 03:34:28;;;;;;;9.50;2.83;;;5.90;99.90;;;;;;4991948;28;20081;-43
2023/10/16 03:37:03;;;;;;;9.25;2.65;;;5.90;99.90;;;;;;4991818;28;20018;-43
2023/10/16 03:39:29;;;;;;;6.80;2.42;;;5.90;99.90;;;;;;4991839;28;20085;-43
2023/10/16 03:41:55;;;;;;;8.77;2.30;;;5.90;99.90;;;;;;4992437;28;20395;-42
2023/10/16 03:44:21;;;;;;;4.95;2.63;;;5.90;99.90;;;;;;4991976;28;20019;-43
2023/10/16 03:46:49;;;;;;;8.73;2.42;;;5.90;99.90;;;;;;4991834;28;20110;-44
2023/10/16 03:49:15;;;;;;;8.23;3.00;;;5.90;99.90;;;;;;4991831;28;20030;-45
2023/10/16 03:51:40;;;;;;;6.38;2.15;;;5.90;99.90;;;;;;4974447;28;20121;-43
2023/10/16 03:54:06;;;;;;;15.13;3.22;;;5.90;99.90;;;;;;4991764;28;20022;-45
2023/10/16 03:56:32;;;;;;;13.60;2.80;;;5.90;99.90;;;;;;4974524;28;20026;-42
2023/10/16 03:58:58;;;;;;;6.38;2.20;;;5.90;99.90;;;;;;4991502;28;20387;-43
2023/10/16 04:01:27;;;;;;;7.80;2.60;;;5.90;99.90;;;;;;4991421;28;20030;-43
2023/10/16 04:04:02;;;;;;;10.15;2.47;;;5.90;99.90;;;;;;4991551;28;20420;-43
2023/10/16 04:06:28;;;;;;;7.22;2.08;;;5.80;99.90;;;;;;4973574;28;20018;-43
2023/10/16 04:08:55;;;;;;;15.05;5.28;;;5.90;99.90;;;;;;4972885;28;20022;-44
2023/10/16 04:11:25;;;;;;;8.18;3.55;;;5.90;99.90;;;;;;4991337;28;20022;-43
2023/10/16 04:13:54;;;;;;;7.93;2.83;;;5.90;99.90;;;;;;4988340;28;20473;-45
2023/10/16 04:18:56;;;;;;;4.07;2.05;;;6.00;99.90;;;;;;4990852;28;20038;-43
2023/10/16 04:24:30;;;;;;;6.57;2.47;;;6.00;99.90;;;;;;4991041;28;20453;-43
2023/10/16 04:29:25;;;;;;;9.95;2.95;;;6.10;99.90;;;;;;4990799;28;20022;-44
2023/10/16 04:47:56;;;;;;;6.13;2.25;;;6.10;99.90;;;;;;4991112;28;20380;-44
2023/10/16 04:50:49;;;;;;;9.32;2.33;;;6.10;99.90;;;;;;4990225;28;20040;-46
2023/10/16 04:53:13;;;;;;;7.10;1.95;;;6.20;99.90;;;;;;4990131;28;20045;-44
2023/10/16 05:03:35;;;;;;;7.57;2.40;;;6.20;99.90;;;;;;4990630;28;20022;-44
2023/10/16 05:13:56;;;;;;;9.50;2.33;;;6.20;99.90;;;;;;4990236;28;20247;-45
2023/10/16 05:16:38;;;;;;;8.48;2.67;;;6.20;99.90;;;;;;4989722;28;20034;-44
2023/10/16 05:19:15;;;;;;;12.77;2.63;;;6.20;99.90;;;;;;4990234;28;20022;-47
2023/10/16 06:16:17;;;;;;;6.97;2.53;;;6.50;99.90;;;;;;4989856;28;20061;-46
2023/10/16 06:18:46;;;;;;;6.82;2.75;;;6.50;99.90;;;;;;4989663;28;20026;-44
2023/10/16 06:21:15;;;;;;;8.52;2.67;;;6.50;99.90;;;;;;4971773;28;20100;-44
2023/10/16 06:23:51;;;;;;;8.52;3.22;;;6.50;99.90;;;;;;4989434;28;20033;-46
2023/10/16 06:26:18;;;;;;;13.27;3.03;;;6.60;99.90;;;;;;4971697;28;20031;-43
2023/10/16 06:28:47;;;;;;;11.50;2.60;;;6.60;99.90;;;;;;4989476;28;20057;-45
2023/10/16 06:31:22;;;;;;;8.65;3.13;;;6.70;99.90;;;;;;4989581;28;20030;-44
2023/10/16 06:33:49;;;;;;;8.18;3.15;;;6.70;99.90;;;;;;4993174;28;20026;-43
2023/10/16 06:36:17;;;;;;;8.80;2.40;;;6.70;99.90;;;;;;4992702;28;20550;-44
2023/10/16 06:38:43;;;;;;;7.38;2.40;;;6.70;99.90;;;;;;4993543;28;20100;-44
2023/10/16 06:41:08;;;;;;;11.73;2.53;;;6.70;99.90;;;;;;4993099;28;20340;-44
2023/10/16 06:43:35;;;;;;;8.20;2.80;;;6.80;99.90;;;;;;4992564;28;20500;-43
2023/10/16 06:46:09;;;;;;;8.77;2.97;;;6.80;99.90;;;;;;4992428;28;20018;-45
2023/10/16 06:48:37;;;;;;;5.53;2.60;;;6.90;99.90;;;;;;4993441;28;20023;-45
2023/10/16 06:51:14;;;;;;;13.25;2.67;;;6.80;99.90;;;;;;4975214;28;20164;-45
2023/10/16 06:53:40;;;;;;;9.70;2.83;;;6.90;99.90;;;;;;4992864;28;20308;-44
2023/10/16 06:56:05;;;;;;;8.32;2.90;;;7.00;99.90;;;;;;4992116;28;20065;-44
2023/10/16 06:58:34;;;;;;;9.52;3.03;;;7.00;99.90;;;;;;4992472;28;20037;-47
2023/10/16 07:01:01;;;;;;;9.38;3.00;;;7.10;99.90;;;;;;4992521;28;20026;-45
2023/10/16 07:03:28;;;;;;;11.25;3.25;;;7.10;99.90;;;;;;4992951;28;20014;-44
2023/10/16 07:05:53;;;;;;;6.05;3.03;;;7.10;99.90;;;;;;4992200;28;20030;-45
2023/10/16 07:08:20;;;;;;;11.90;3.92;;;7.10;99.90;;;;;;4992342;28;20030;-47
2023/10/16 07:10:55;;;;;;;8.98;3.53;;;7.10;99.90;;;;;;4992420;28;20032;-45
2023/10/16 07:13:27;;;;;;;10.07;3.47;;;7.10;99.90;;;;;;4992386;28;20505;-44
2023/10/16 07:16:01;;;;;;;6.45;3.08;;;7.10;99.90;;;;;;4991875;28;20096;-45
2023/10/16 07:18:28;;;;;;;12.48;3.10;;;7.10;99.90;;;;;;4992375;28;20387;-45
2023/10/16 07:23:30;;;;;;;10.32;4.38;;;7.20;99.90;;;;;;4992192;28;20018;-45
2023/10/16 07:25:59;;;;;;;6.35;3.08;;;7.20;99.90;;;;;;4991301;28;20018;-44
2023/10/16 07:28:26;;;;;;;11.88;3.70;;;7.30;99.90;;;;;;4991589;28;20014;-44
2023/10/16 07:31:05;;;;;;;15.60;3.58;;;7.30;99.90;;;;;;4991021;28;20026;-44
2023/10/16 07:33:32;;;;;;;8.73;3.30;;;7.40;99.90;;;;;;4985676;28;20033;-45
2023/10/16 07:36:10;;;;;;;6.82;3.33;;;7.40;99.90;;;;;;4991751;28;20038;-47
2023/10/16 07:38:38;;;;;;;7.50;3.60;;;7.50;99.90;;;;;;4991749;28;20029;-46
2023/10/16 07:41:04;;;;;;;6.53;3.40;;;7.50;99.90;;;;;;4991725;28;20431;-44
2023/10/16 07:43:33;;;;;;;7.10;3.03;;;7.60;99.90;;;;;;4991630;28;20026;-44
2023/10/16 07:48:52;;;;;;;12.35;4.53;;;7.70;99.90;;;;;;4992175;28;20022;-44
2023/10/16 07:51:25;;;;;;;6.40;3.70;;;7.60;99.90;;;;;;4991923;28;20030;-47
2023/10/16 07:53:51;;;;;;;7.03;3.28;;;7.60;99.90;;;;;;4991546;28;20475;-46
2023/10/16 07:56:25;;;;;;;13.57;4.22;;;7.70;99.90;;;;;;4991101;28;20027;-44
2023/10/16 07:58:56;;;;;;;9.45;3.75;;;7.70;99.90;;;;;;4991211;28;20509;-45
2023/10/16 08:01:32;;;;;;;8.00;4.55;;;7.70;99.90;;;;;;4991418;28;20069;-46
2023/10/16 08:04:01;;;;;;;11.48;3.35;;;7.80;99.90;;;;;;4991400;28;20018;-45
2023/10/16 08:06:26;;;;;;;14.52;4.32;;;7.80;99.90;;;;;;4991480;28;20026;-44
2023/10/16 08:09:35;;;;;;;9.52;4.90;;;7.90;99.90;;;;;;4991558;28;20034;-45
2023/10/16 08:11:42;;;;;;;11.57;4.78;;;7.80;99.90;;;;;;4991254;28;20459;-45
2023/10/16 08:14:13;;;;;;;6.78;3.80;;;7.90;99.90;;;;;;4990906;28;20033;-46
2023/10/16 08:16:38;;;;;;;10.75;3.80;;;7.90;99.90;;;;;;4991474;28;20057;-45
2023/10/16 08:19:24;;;;;;;9.80;3.80;;;7.90;99.90;;;;;;4991037;28;20022;-44
2023/10/16 08:21:50;;;;;;;9.02;4.20;;;8.00;99.90;;;;;;4990897;28;20116;-44
2023/10/16 08:24:21;;;;;;;10.23;3.90;;;8.10;99.90;;;;;;4990639;28;20046;-44
2023/10/16 08:26:48;;;;;;;10.13;4.22;;;8.20;99.90;;;;;;4990710;28;20283;-47
2023/10/16 08:32:37;;;;;;;6.93;4.03;;;8.30;99.90;;;;;;4990434;28;20022;-45
2023/10/16 08:34:40;;;;;;;9.13;4.20;;;8.40;99.90;;;;;;4990211;28;20034;-47
2023/10/16 08:37:08;;;;;;;7.35;3.47;;;8.50;99.90;;;;;;4990229;28;20049;-46
2023/10/16 08:39:36;;;;;;;11.27;3.90;;;8.60;99.90;;;;;;4990489;28;20038;-44
2023/10/16 08:42:11;;;;;;;6.68;3.45;;;8.60;99.90;;;;;;4990597;28;20037;-45
2023/10/16 08:44:38;;;;;;;8.73;4.53;;;8.70;99.90;;;;;;4990437;28;20023;-45
2023/10/16 08:49:33;;;;;;;13.68;4.85;;;8.70;99.90;;;;;;4990870;28;20054;-45
2023/10/16 08:52:08;;;;;;;5.65;4.20;;;8.70;99.90;;;;;;4990781;28;20030;-44
2023/10/16 08:57:19;;;;;;;11.45;5.25;;;8.80;99.90;;;;;;4990325;28;20023;-45
2023/10/16 08:59:51;;;;;;;14.07;5.45;;;8.80;99.90;;;;;;4990409;28;20025;-44
2023/10/16 09:02:19;;;;;;;8.10;4.60;;;8.90;99.90;;;;;;4990273;28;20019;-48
2023/10/16 09:04:48;;;;;;;10.25;5.40;;;8.90;99.90;;;;;;4990008;28;20027;-46
2023/10/16 09:07:17;;;;;;;7.80;5.20;;;9.00;99.90;;;;;;4990421;28;20061;-44
2023/10/16 09:09:48;;;;;;;9.73;5.50;;;8.90;99.90;;;;;;4990290;28;20022;-45
2023/10/16 09:12:25;;;;;;;8.77;5.93;;;8.90;99.90;;;;;;4990099;28;20053;-45
2023/10/16 09:14:52;;;;;;;8.13;5.85;;;8.90;99.90;;;;;;4986149;28;20436;-46
2023/10/16 09:17:21;;;;;;;10.43;5.53;;;9.10;99.90;;;;;;4988112;28;20110;-46
2023/10/16 09:19:48;;;;;;;11.07;6.22;;;9.10;99.90;;;;;;4990218;28;20476;-47
2023/10/16 09:22:15;;;;;;;8.30;5.90;;;9.30;99.90;;;;;;4989791;28;20506;-45
2023/10/16 09:24:45;;;;;;;7.82;5.45;;;9.50;99.90;;;;;;4989984;28;20022;-45
2023/10/16 09:27:17;;;;;;;7.35;5.32;;;9.70;99.90;;;;;;4990147;28;20086;-45
2023/10/16 09:29:55;;;;;;;8.35;5.13;;;9.80;99.90;;;;;;4990112;28;20031;-46
2023/10/16 09:32:36;;;;;;;5.68;3.97;;;9.80;99.90;;;;;;4989966;28;20057;-45
2023/10/16 09:35:06;;;;;;;6.30;4.05;;;9.80;99.90;;;;;;4989662;28;20094;-44
2023/10/16 09:37:37;;;;;;;5.82;4.05;;;10.00;99.90;;;;;;4990083;28;20483;-44
2023/10/16 09:40:35;;;;;;;11.43;4.10;;;10.00;99.90;;;;;;4989796;28;20038;-46
2023/10/16 09:43:13;;;;;;;5.85;3.78;;;10.00;99.90;;;;;;4989685;28;20037;-45
2023/10/16 09:45:39;;;;;;;6.07;3.90;;;9.90;99.90;;;;;;4989568;28;20018;-48
2023/10/16 09:48:08;;;;;;;7.03;4.70;;;9.90;99.90;;;;;;4972303;28;20025;-46
2023/10/16 09:50:38;;;;;;;4.65;3.50;;;9.90;99.90;;;;;;4989936;28;20053;-44
2023/10/16 09:53:06;;;;;;;6.47;3.30;;;10.00;99.90;;;;;;4982070;28;20125;-45
2023/10/16 09:55:38;;;;;;;6.05;3.55;;;10.10;99.90;;;;;;4983248;28;20097;-45
2023/10/16 09:58:06;;;;;;;6.07;3.13;;;10.10;99.90;;;;;;4982972;28;20055;-45
2023/10/16 10:00:32;;;;;;;5.68;3.20;;;10.00;99.90;;;;;;4966586;28;20030;-47
2023/10/16 10:03:05;;;;;;;5.15;2.83;;;10.00;99.90;;;;;;4989612;28;20030;-48
2023/10/16 10:05:49;;;;;;;3.38;2.85;;;9.90;99.90;;;;;;4988821;28;20558;-45
2023/10/16 10:08:27;;;;;;;7.90;3.50;;;9.90;99.90;;;;;;4986677;28;20032;-47
2023/10/16 10:11:17;;;;;;;7.32;3.28;;;9.90;99.90;;;;;;4986900;28;20555;-46
2023/10/16 10:14:08;;;;;;;7.95;3.65;;;9.80;99.90;;;;;;4987081;28;20034;-46
2023/10/16 10:16:35;;;;;;;5.57;3.08;;;9.80;99.90;;;;;;4990232;28;20061;-45
2023/10/16 10:19:04;;;;;;;3.53;3.00;;;9.80;99.90;;;;;;4993181;28;20112;-44
2023/10/16 10:21:44;;;;;;;4.20;3.00;;;9.70;99.90;;;;;;4993210;28;20165;-46
2023/10/16 10:24:15;;;;;;;4.13;2.20;;;9.60;99.90;;;;;;4993194;28;20014;-44
2023/10/16 10:26:48;;;;;;;3.92;2.40;;;9.50;99.90;;;;;;4993234;28;20022;-46
2023/10/16 10:29:16;;;;;;;3.38;2.10;;;9.50;99.90;;;;;;4993414;28;20030;-46
2023/10/16 10:31:44;;;;;;;5.07;3.25;;;9.50;99.90;;;;;;4990702;28;20026;-45
2023/10/16 10:34:23;;;;;;;3.95;2.35;;;9.50;99.90;;;;;;4975499;28;20037;-44
2023/10/16 10:36:50;;;;;;;2.88;2.05;;;9.50;99.90;;;;;;4993398;28;20105;-45
2023/10/16 10:39:21;;;;;;;2.00;1.60;;;9.50;99.90;;;;;;4993102;28;20030;-45
2023/10/16 10:41:53;;;;;;;2.92;1.92;;;9.50;99.90;;;;;;4993038;28;20121;-48
2023/10/16 10:44:29;;;;;;;3.67;1.80;;;9.60;99.90;;;;;;4992822;28;20018;-44
2023/10/16 10:46:55;;;;;;;3.15;1.77;;;9.60;99.90;;;;;;4992775;28;20034;-45
2023/10/16 10:49:33;;;;;;;4.10;1.60;;;9.70;99.90;;;;;;4992828;28;20034;-44
2023/10/16 10:52:07;;;;;;;4.15;1.65;;;9.80;99.90;;;;;;4992927;28;20106;-44
2023/10/16 10:54:42;;;;;;;2.75;1.10;;;9.90;99.90;;;;;;4992753;28;20054;-46
2023/10/16 10:57:18;;;;;;;2.65;1.50;;;10.10;99.90;;;;;;4992457;28;20105;-45
2023/10/16 10:59:56;;;;;;;2.05;1.30;;;10.30;99.90;;;;;;4992759;28;20022;-46
2023/10/16 11:04:58;;;;;;;3.53;1.63;;;10.60;99.90;;;;;;4992405;28;20038;-44
2023/10/16 11:07:29;;;;;;;5.20;1.50;;;10.70;99.90;;;;;;4974591;28;20033;-44
2023/10/16 11:09:57;;;;;;;;;;;10.80;99.90;;;;;;4975449;28;20487;-47
2023/10/16 11:12:25;;;;;;;3.63;1.30;;;10.80;99.90;;;;;;4992269;28;20386;-44
2023/10/16 11:14:53;;;;;;;5.80;1.35;;;10.80;99.90;;;;;;4974517;28;20050;-44
2023/10/16 11:17:32;;;;;;;2.33;1.40;;;10.80;99.90;;;;;;4991382;28;20367;-47
2023/10/16 11:19:59;;;;;;;2.17;1.55;;;10.80;99.90;;;;;;4992504;28;20046;-45
2023/10/16 11:22:27;;;;;;;3.05;1.50;;;11.10;99.90;;;;;;4974372;28;20476;-44
2023/10/16 11:24:53;;;;;;;1.75;1.30;;;11.40;99.90;;;;;;4992216;28;20361;-44
2023/10/16 11:27:19;;;;;;;1.65;1.20;;;11.80;99.90;;;;;;4992147;28;20029;-44
2023/10/16 11:29:46;;;;;;;4.18;1.70;;;12.00;99.90;;;;;;4992366;28;20105;-45
2023/10/16 11:32:15;;;;;;;2.35;1.63;;;12.00;99.90;;;;;;4991982;28;20042;-44
2023/10/16 11:34:50;;;;;;;2.92;1.55;;;11.90;99.90;;;;;;4992160;28;20140;-44
2023/10/16 11:37:21;;;;;;;2.20;1.23;;;11.80;99.90;;;;;;4992126;28;20030;-45
2023/10/16 11:39:48;;;;;;;4.93;1.38;;;11.60;99.90;;;;;;4968874;28;20432;-43
2023/10/16 11:42:14;;;;;;;4.28;1.30;;;11.40;99.90;;;;;;4983564;28;20035;-44
2023/10/16 11:44:41;;;;;;;3.58;1.27;;;11.30;99.90;;;;;;4988937;28;20054;-44
2023/10/16 11:47:08;;;;;;;2.03;1.20;;;11.20;99.90;;;;;;4992123;28;20510;-45
2023/10/16 11:49:35;;;;;;;3.47;1.15;;;11.20;99.90;;;;;;4991838;28;20376;-44
2023/10/16 11:52:19;;;;;;;4.20;1.30;;;11.40;99.90;;;;;;4971440;28;20037;-44
2023/10/16 11:54:46;;;;;;;2.67;1.00;;;11.70;99.90;;;;;;4982976;28;20500;-45
2023/10/16 11:57:14;;;;;;;8.63;1.60;;;12.20;99.90;;;;;;4985547;28;20376;-45
2023/10/16 11:59:40;;;;;;;5.10;1.52;;;12.60;99.90;;;;;;4985765;28;20024;-44
2023/10/16 12:02:18;;;;;;;2.90;1.00;;;12.70;99.90;;;;;;4988346;28;20023;-45
2023/10/16 12:04:44;;;;;;;1.52;1.08;;;12.70;99.90;;;;;;4982849;28;20396;-44
2023/10/16 12:07:13;;;;;;;5.53;1.40;;;12.70;99.90;;;;;;4986646;28;20033;-45
2023/10/16 12:09:42;;;;;;;2.38;1.23;;;12.70;99.90;;;;;;4984321;28;20046;-44
2023/10/16 12:12:19;;;;;;;3.42;0.98;;;12.70;99.90;;;;;;4990385;28;20061;-44
2023/10/16 12:14:45;;;;;;;1.85;1.08;;;12.90;99.90;;;;;;4987206;28;20116;-46
2023/10/16 12:17:13;;;;;;;3.33;1.35;;;13.00;99.90;;;;;;4984033;28;20107;-44
2023/10/16 12:19:39;;;;;;;4.88;1.10;;;12.80;99.90;;;;;;4985247;28;20015;-44
2023/10/16 12:22:08;;;;;;;1.58;1.02;;;13.00;99.90;;;;;;4982990;28;20499;-44
2023/10/16 12:24:33;;;;;;;2.13;0.82;;;13.00;99.90;;;;;;4985068;28;20025;-44
2023/10/16 12:27:01;;;;;;;1.58;0.80;;;12.90;99.90;;;;;;4982517;28;20022;-44
2023/10/16 12:29:27;;;;;;;0.90;0.70;;;12.80;99.90;;;;;;4982288;28;20038;-45
2023/10/16 12:31:54;;;;;;;4.78;1.33;;;12.60;99.90;;;;;;4982421;28;20070;-44
2023/10/16 12:34:22;;;;;;;1.65;1.10;;;12.30;99.90;;;;;;4986868;28;20026;-44
2023/10/16 12:36:49;;;;;;;1.20;1.08;;;12.10;99.90;;;;;;4986027;28;20027;-47
2023/10/16 12:39:24;;;;;;;3.65;1.20;;;12.00;99.90;;;;;;4983947;28;20030;-47
2023/10/16 12:41:54;;;;;;;3.00;0.88;;;11.90;99.90;;;;;;4982966;28;20038;-47
2023/10/16 12:44:19;;;;;;;2.80;0.90;;;11.80;99.90;;;;;;4987795;28;20019;-43
2023/10/16 12:46:45;;;;;;;1.85;0.85;;;11.70;99.90;;;;;;4990841;28;20076;-44
2023/10/16 12:49:10;;;;;;;3.50;1.20;;;11.50;99.90;;;;;;4990216;28;20054;-45
2023/10/16 12:51:36;;;;;;;5.50;1.60;;;11.40;99.90;;;;;;4990668;28;20030;-44
2023/10/16 12:54:05;;;;;;;2.53;1.00;;;11.30;99.90;;;;;;4990739;28;20477;-44
2023/10/16 12:56:32;;;;;;;1.42;1.00;;;11.30;99.90;;;;;;4990548;28;20109;-45
2023/10/16 12:59:02;;;;;;;1.42;1.02;;;11.30;99.90;;;;;;4990872;28;20121;-47
2023/10/16 13:01:27;;;;;;;2.95;1.08;;;11.20;99.90;;;;;;4990885;28;20037;-44
2023/10/16 13:03:59;;;;;;;0.80;0.70;;;11.20;99.90;;;;;;4990420;28;20026;-44
2023/10/16 13:06:30;;;;;;;1.27;0.80;;;11.20;99.90;;;;;;4990100;28;20081;-44
2023/10/16 13:08:57;;;;;;;1.42;0.90;;;11.10;99.90;;;;;;4990303;28;20542;-43
2023/10/16 13:11:24;;;;;;;2.72;0.95;;;11.20;99.90;;;;;;4972767;28;20036;-45
2023/10/16 13:13:50;;;;;;;2.08;1.40;;;11.30;99.90;;;;;;4990666;28;20432;-44
2023/10/16 13:16:24;;;;;;;1.77;1.30;;;11.40;99.90;;;;;;4990135;28;20484;-44
2023/10/16 13:18:59;;;;;;;6.30;1.40;;;11.50;99.90;;;;;;4986810;28;20041;-43
2023/10/16 13:21:38;;;;;;;5.13;1.30;;;11.70;99.90;;;;;;4984387;28;20146;-45
2023/10/16 13:24:12;;;;;;;2.67;0.88;;;11.80;99.90;;;;;;4982803;28;20073;-44
2023/10/16 13:26:39;;;;;;;7.40;1.38;;;11.90;99.90;;;;;;4990103;28;20365;-43
2023/10/16 13:29:09;;;;;;;2.13;1.00;;;11.80;99.90;;;;;;4989689;28;20366;-44
2023/10/16 13:31:41;;;;;;;1.75;0.93;;;11.80;99.90;;;;;;4983056;28;20068;-46
2023/10/16 13:34:13;;;;;;;1.45;0.90;;;11.80;99.90;;;;;;4984416;28;20033;-44
2023/10/16 13:36:42;;;;;;;4.20;1.20;;;11.70;99.90;;;;;;4982212;28;20476;-44
2023/10/16 13:39:10;;;;;;;0.95;0.95;;;11.60;99.90;;;;;;4984289;28;20034;-44
2023/10/16 13:41:50;;;;;;;2.72;1.23;;;11.70;99.90;;;;;;4981513;28;20072;-46
2023/10/16 13:44:19;;;;;;;3.42;1.50;;;11.60;99.90;;;;;;4989727;28;20022;-44
2023/10/16 13:46:48;;;;;;;3.65;1.35;;;11.50;99.90;;;;;;4989736;28;20531;-44
2023/10/16 13:49:15;;;;;;;2.60;1.00;;;11.40;99.90;;;;;;4989938;28;20046;-44
2023/10/16 13:51:41;;;;;;;1.85;1.25;;;11.30;99.90;;;;;;4988872;28;20022;-44
2023/10/16 13:54:12;;;;;;;5.13;1.35;;;11.20;99.90;;;;;;4989148;28;20365;-44
2023/10/16 13:56:41;;;;;;;3.17;1.77;;;11.20;99.90;;;;;;4989224;28;20030;-43
2023/10/16 13:59:08;;;;;;;3.13;1.50;;;11.00;99.90;;;;;;4987846;28;20034;-46
2023/10/16 14:01:42;;;;;;;2.38;1.15;;;11.00;99.90;;;;;;4970428;28;20061;-43
2023/10/16 14:04:14;;;;;;;5.10;1.80;;;10.90;99.90;;;;;;4987870;28;20113;-43
2023/10/16 14:06:44;;;;;;;3.53;1.58;;;10.90;99.90;;;;;;4987825;28;20026;-43
2023/10/16 14:09:19;;;;;;;1.95;1.10;;;10.90;99.90;;;;;;4970714;28;20027;-44
2023/10/16 14:11:48;;;;;;;1.95;1.15;;;10.80;99.90;;;;;;4988861;28;20039;-44
2023/10/16 14:14:21;;;;;;;2.58;1.27;;;10.70;99.90;;;;;;4989319;28;20030;-45
2023/10/16 14:17:16;;;;;;;2.95;0.98;;;10.70;99.90;;;;;;4989552;28;20030;-45
2023/10/16 14:19:47;;;;;;;2.38;1.10;;;10.70;99.90;;;;;;4989720;28;20084;-44
2023/10/16 14:22:15;;;;;;;3.10;1.40;;;10.60;99.90;;;;;;4989680;28;20023;-44
2023/10/16 14:24:42;;;;;;;4.72;1.60;;;10.60;99.90;;;;;;4972211;28;20387;-44
2023/10/16 14:27:08;;;;;;;3.70;2.22;;;10.60;99.90;;;;;;4989412;28;20309;-43
2023/10/16 14:29:38;;;;;;;3.85;2.10;;;10.50;99.90;;;;;;4989088;28;20030;-44
2023/10/16 14:32:04;;;;;;;5.15;2.38;;;10.60;99.90;;;;;;4989373;28;20026;-44
2023/10/16 14:34:30;;;;;;;3.53;2.30;;;10.70;99.90;;;;;;4989561;28;20030;-44
2023/10/16 14:36:58;;;;;;;2.80;2.00;;;10.70;99.90;;;;;;4989340;28;20396;-44
2023/10/16 14:39:27;;;;;;;2.65;1.70;;;10.80;99.90;;;;;;4971715;28;20026;-44
2023/10/16 14:41:54;;;;;;;3.43;1.97;;;10.90;99.90;;;;;;4988943;28;20030;-45
2023/10/16 14:44:19;;;;;;;6.25;2.50;;;11.00;99.90;;;;;;4989226;28;20109;-44
2023/10/16 14:46:45;;;;;;;5.68;2.10;;;11.10;99.90;;;;;;4989358;28;20101;-45
2023/10/16 14:49:10;;;;;;;2.28;1.73;;;11.20;99.90;;;;;;4989701;28;20027;-45
2023/10/16 14:51:40;;;;;;;4.78;1.70;;;11.10;99.90;;;;;;4988670;28;20080;-44
2023/10/16 14:54:10;;;;;;;2.70;1.52;;;11.10;99.90;;;;;;4990847;28;20026;-43
2023/10/16 14:56:42;;;;;;;7.63;1.65;;;11.10;99.90;;;;;;4973885;28;20527;-44